createdAt,value
2019-04-30T00:00:22.939Z,1015.18
2019-04-30T00:01:22.932Z,1015.19
2019-04-30T00:02:22.924Z,1015.25
2019-04-30T00:03:24.915Z,1015.17
2019-04-30T00:04:22.902Z,1015.15
2019-04-30T00:05:22.906Z,1015.13
2019-04-30T00:06:28.798Z,1015.16
2019-04-30T00:07:24.868Z,1015.20
2019-04-30T00:08:22.872Z,1015.16
2019-04-30T00:09:22.844Z,1015.12
2019-04-30T00:10:29.073Z,1015.11
2019-04-30T00:11:25.096Z,1015.12
2019-04-30T00:12:22.828Z,1015.13
2019-04-30T00:13:22.821Z,1015.13
2019-04-30T00:14:22.794Z,1015.14
2019-04-30T00:15:22.782Z,1015.17
2019-04-30T00:16:22.777Z,1015.16
2019-04-30T00:17:22.756Z,1015.13
2019-04-30T00:18:22.765Z,1015.13
2019-04-30T00:19:22.735Z,1015.11
2019-04-30T00:20:22.749Z,1015.12
2019-04-30T00:21:22.729Z,1015.10
2019-04-30T00:22:31.718Z,1015.15
2019-04-30T00:23:27.219Z,1015.11
2019-04-30T00:24:25.845Z,1015.08
2019-04-30T00:25:24.962Z,1015.03
2019-04-30T00:26:25.314Z,1015.02
2019-04-30T00:27:28.400Z,1015.05
2019-04-30T00:28:25.419Z,1015.08
2019-04-30T00:29:26.926Z,1015.05
2019-04-30T00:30:25.228Z,1015.06
2019-04-30T00:31:23.867Z,1014.99
2019-04-30T00:32:22.596Z,1015.06
2019-04-30T00:33:25.119Z,1015.03
2019-04-30T00:34:22.572Z,1015.03
2019-04-30T00:35:22.563Z,1015.02
2019-04-30T00:36:27.131Z,1014.97
2019-04-30T00:37:25.342Z,1014.97
2019-04-30T00:38:22.551Z,1014.98
2019-04-30T00:39:22.523Z,1015.00
2019-04-30T00:40:26.790Z,1014.99
2019-04-30T00:41:25.535Z,1015.01
2019-04-30T00:42:24.456Z,1014.98
2019-04-30T00:43:25.200Z,1015.00
2019-04-30T00:44:24.826Z,1015.02
2019-04-30T00:45:25.128Z,1014.89
2019-04-30T00:46:24.927Z,1014.99
2019-04-30T00:47:25.257Z,1014.98
2019-04-30T00:48:28.021Z,1015.01
2019-04-30T00:49:26.495Z,1014.97
2019-04-30T00:50:22.399Z,1015.00
2019-04-30T00:51:22.417Z,1014.99
2019-04-30T00:52:22.381Z,1014.95
2019-04-30T00:53:22.368Z,1014.90
2019-04-30T00:54:27.101Z,1014.94
2019-04-30T00:55:24.913Z,1014.96
2019-04-30T00:56:24.808Z,1014.94
2019-04-30T00:57:26.303Z,1014.95
2019-04-30T00:58:29.008Z,1014.89
2019-04-30T00:59:24.937Z,1014.91
2019-04-30T01:00:25.961Z,1014.85
2019-04-30T01:01:25.201Z,1014.84
2019-04-30T01:02:30.470Z,1014.86
2019-04-30T01:03:23.278Z,1014.84
2019-04-30T01:04:24.473Z,1014.88
2019-04-30T01:05:23.237Z,1014.87
2019-04-30T01:06:24.617Z,1014.88
2019-04-30T01:07:23.213Z,1014.86
2019-04-30T01:08:27.197Z,1014.85
2019-04-30T01:09:23.214Z,1014.82
2019-04-30T01:10:24.755Z,1014.84
2019-04-30T01:11:23.171Z,1014.84
2019-04-30T01:12:27.707Z,1014.84
2019-04-30T01:13:23.169Z,1014.84
2019-04-30T01:14:23.281Z,1014.78
2019-04-30T01:15:22.173Z,1014.82
2019-04-30T01:16:23.648Z,1014.81
2019-04-30T01:17:23.111Z,1014.79
2019-04-30T01:18:23.506Z,1014.79
2019-04-30T01:19:30.073Z,1014.79
2019-04-30T01:20:24.072Z,1014.83
2019-04-30T01:21:23.064Z,1014.79
2019-04-30T01:22:28.431Z,1014.81
2019-04-30T01:23:23.042Z,1014.81
2019-04-30T01:24:23.472Z,1014.77
2019-04-30T01:25:23.038Z,1014.79
2019-04-30T01:26:22.862Z,1014.81
2019-04-30T01:27:22.003Z,1014.77
2019-04-30T01:28:24.300Z,1014.76
2019-04-30T01:29:21.984Z,1014.73
2019-04-30T01:30:22.886Z,1014.78
2019-04-30T01:31:21.971Z,1014.75
2019-04-30T01:32:21.950Z,1014.74
2019-04-30T01:33:21.942Z,1014.74
2019-04-30T01:34:21.929Z,1014.74
2019-04-30T01:35:23.933Z,1014.72
2019-04-30T01:36:22.903Z,1014.77
2019-04-30T01:37:28.450Z,1014.73
2019-04-30T01:38:22.884Z,1014.70
2019-04-30T01:39:23.756Z,1014.72
2019-04-30T01:40:22.877Z,1014.71
2019-04-30T01:41:27.476Z,1014.71
2019-04-30T01:42:22.833Z,1014.71
2019-04-30T01:43:30.571Z,1014.78
2019-04-30T01:44:22.821Z,1014.73
2019-04-30T01:45:23.146Z,1014.72
2019-04-30T01:46:22.801Z,1014.71
2019-04-30T01:47:27.843Z,1014.74
2019-04-30T01:48:22.771Z,1014.75
2019-04-30T01:49:25.652Z,1014.77
2019-04-30T01:50:22.768Z,1014.73
2019-04-30T01:51:21.974Z,1014.73
2019-04-30T01:52:21.727Z,1014.76
2019-04-30T01:53:21.720Z,1014.75
2019-04-30T01:54:24.321Z,1014.75
2019-04-30T01:55:21.715Z,1014.75
2019-04-30T01:56:21.690Z,1014.72
2019-04-30T01:57:21.695Z,1014.70
2019-04-30T01:58:21.665Z,1014.73
2019-04-30T01:59:21.692Z,1014.64
2019-04-30T02:00:21.664Z,1014.71
2019-04-30T02:01:21.642Z,1014.73
2019-04-30T02:02:21.620Z,1014.72
2019-04-30T02:03:21.615Z,1014.74
2019-04-30T02:04:21.600Z,1014.78
2019-04-30T02:05:21.610Z,1014.77
2019-04-30T02:06:21.580Z,1014.76
2019-04-30T02:07:21.566Z,1014.80
2019-04-30T02:08:21.560Z,1014.78
2019-04-30T02:09:21.545Z,1014.76
2019-04-30T02:10:21.560Z,1014.78
2019-04-30T02:11:21.524Z,1014.76
2019-04-30T02:12:21.896Z,1014.77
2019-04-30T02:13:21.504Z,1014.77
2019-04-30T02:14:21.489Z,1014.81
2019-04-30T02:15:21.508Z,1014.85
2019-04-30T02:16:21.472Z,1014.83
2019-04-30T02:17:21.479Z,1014.82
2019-04-30T02:18:21.456Z,1014.80
2019-04-30T02:19:21.440Z,1014.82
2019-04-30T02:20:21.450Z,1014.83
2019-04-30T02:21:21.415Z,1014.84
2019-04-30T02:22:21.410Z,1014.82
2019-04-30T02:23:21.394Z,1014.83
2019-04-30T02:24:21.386Z,1014.81
2019-04-30T02:25:21.373Z,1014.79
2019-04-30T02:26:21.388Z,1014.82
2019-04-30T02:27:21.682Z,1014.78
2019-04-30T02:28:21.345Z,1014.82
2019-04-30T02:29:21.336Z,1014.83
2019-04-30T02:30:21.318Z,1014.86
2019-04-30T02:31:22.832Z,1014.89
2019-04-30T02:32:21.295Z,1014.93
2019-04-30T02:33:21.291Z,1014.91
2019-04-30T02:34:22.214Z,1014.92
2019-04-30T02:35:21.266Z,1014.89
2019-04-30T02:36:21.271Z,1014.87
2019-04-30T02:37:21.249Z,1014.85
2019-04-30T02:38:21.239Z,1014.84
2019-04-30T02:39:21.227Z,1014.89
2019-04-30T02:40:21.216Z,1014.84
2019-04-30T02:41:21.214Z,1014.83
2019-04-30T02:42:21.187Z,1014.81
2019-04-30T02:43:21.174Z,1014.89
2019-04-30T02:44:21.166Z,1014.81
2019-04-30T02:45:21.167Z,1014.84
2019-04-30T02:46:21.182Z,1014.85
2019-04-30T02:47:21.132Z,1014.79
2019-04-30T02:48:21.150Z,1014.87
2019-04-30T02:49:21.112Z,1014.85
2019-04-30T02:50:22.572Z,1014.84
2019-04-30T02:51:22.930Z,1014.83
2019-04-30T02:52:21.080Z,1014.86
2019-04-30T02:53:21.068Z,1014.88
2019-04-30T02:54:23.890Z,1014.82
2019-04-30T02:55:21.046Z,1014.86
2019-04-30T02:56:21.156Z,1014.85
2019-04-30T02:57:23.468Z,1014.90
2019-04-30T02:58:21.254Z,1014.87
2019-04-30T02:59:21.014Z,1014.84
2019-04-30T03:00:21.120Z,1014.83
2019-04-30T03:01:21.014Z,1014.83
2019-04-30T03:02:20.979Z,1014.92
2019-04-30T03:03:20.961Z,1014.91
2019-04-30T03:04:20.951Z,1014.93
2019-04-30T03:05:20.944Z,1014.86
2019-04-30T03:06:23.684Z,1014.92
2019-04-30T03:07:20.924Z,1014.86
2019-04-30T03:08:20.905Z,1014.91
2019-04-30T03:09:20.899Z,1014.87
2019-04-30T03:10:20.886Z,1014.90
2019-04-30T03:11:21.153Z,1014.89
2019-04-30T03:12:20.905Z,1014.85
2019-04-30T03:13:20.871Z,1014.92
2019-04-30T03:14:20.841Z,1014.90
2019-04-30T03:15:22.756Z,1014.89
2019-04-30T03:16:21.036Z,1014.95
2019-04-30T03:17:21.124Z,1014.88
2019-04-30T03:18:22.969Z,1014.89
2019-04-30T03:19:20.802Z,1014.90
2019-04-30T03:20:34.606Z,1014.90
2019-04-30T03:21:21.782Z,1014.89
2019-04-30T03:22:20.757Z,1014.94
2019-04-30T03:23:20.751Z,1014.95
2019-04-30T03:24:20.734Z,1014.94
2019-04-30T03:25:20.727Z,1014.91
2019-04-30T03:26:20.715Z,1014.88
2019-04-30T03:27:24.472Z,1014.93
2019-04-30T03:28:20.689Z,1014.96
2019-04-30T03:29:23.900Z,1014.95
2019-04-30T03:30:21.942Z,1014.92
2019-04-30T03:31:22.381Z,1014.93
2019-04-30T03:32:22.505Z,1014.93
2019-04-30T03:33:22.912Z,1014.96
2019-04-30T03:34:25.604Z,1014.97
2019-04-30T03:35:23.129Z,1014.96
2019-04-30T03:36:21.923Z,1014.98
2019-04-30T03:37:20.607Z,1014.95
2019-04-30T03:38:20.587Z,1014.95
2019-04-30T03:39:20.576Z,1014.98
2019-04-30T03:40:20.569Z,1015.02
2019-04-30T03:41:20.553Z,1014.92
2019-04-30T03:42:20.568Z,1014.91
2019-04-30T03:43:20.535Z,1014.88
2019-04-30T03:44:25.489Z,1014.88
2019-04-30T03:45:21.515Z,1014.94
2019-04-30T03:46:20.497Z,1014.96
2019-04-30T03:47:20.555Z,1014.92
2019-04-30T03:48:20.478Z,1015.00
2019-04-30T03:49:20.537Z,1014.98
2019-04-30T03:50:20.451Z,1014.97
2019-04-30T03:51:20.479Z,1015.00
2019-04-30T03:52:20.457Z,1015.01
2019-04-30T03:53:20.434Z,1014.94
2019-04-30T03:54:20.412Z,1014.98
2019-04-30T03:55:22.948Z,1014.96
2019-04-30T03:56:22.824Z,1015.00
2019-04-30T03:57:20.751Z,1015.03
2019-04-30T03:58:21.455Z,1015.05
2019-04-30T03:59:20.356Z,1015.01
2019-04-30T04:00:20.500Z,1015.02
2019-04-30T04:01:20.341Z,1015.03
2019-04-30T04:02:20.979Z,1015.04
2019-04-30T04:03:20.327Z,1015.05
2019-04-30T04:04:20.312Z,1015.06
2019-04-30T04:05:20.350Z,1015.08
2019-04-30T04:06:21.466Z,1015.10
2019-04-30T04:07:20.491Z,1015.04
2019-04-30T04:08:20.300Z,1015.03
2019-04-30T04:09:22.300Z,1015.09
2019-04-30T04:10:20.241Z,1015.09
2019-04-30T04:11:20.235Z,1015.12
2019-04-30T04:12:20.724Z,1015.14
2019-04-30T04:13:20.226Z,1015.15
2019-04-30T04:14:20.194Z,1015.14
2019-04-30T04:15:20.186Z,1015.15
2019-04-30T04:16:20.180Z,1015.10
2019-04-30T04:17:20.439Z,1015.15
2019-04-30T04:18:20.390Z,1015.13
2019-04-30T04:19:20.145Z,1015.21
2019-04-30T04:20:20.471Z,1015.15
2019-04-30T04:21:20.740Z,1015.19
2019-04-30T04:22:20.768Z,1015.17
2019-04-30T04:23:20.132Z,1015.18
2019-04-30T04:24:20.604Z,1015.21
2019-04-30T04:25:20.574Z,1015.19
2019-04-30T04:26:20.387Z,1015.23
2019-04-30T04:27:20.055Z,1015.25
2019-04-30T04:28:20.374Z,1015.29
2019-04-30T04:29:20.070Z,1015.28
2019-04-30T04:30:20.585Z,1015.30
2019-04-30T04:31:20.028Z,1015.30
2019-04-30T04:32:23.949Z,1015.28
2019-04-30T04:33:20.211Z,1015.29
2019-04-30T04:34:20.058Z,1015.33
2019-04-30T04:35:20.112Z,1015.32
2019-04-30T04:36:20.156Z,1015.33
2019-04-30T04:37:20.547Z,1015.35
2019-04-30T04:38:20.576Z,1015.33
2019-04-30T04:39:20.427Z,1015.33
2019-04-30T04:40:21.109Z,1015.32
2019-04-30T04:41:19.961Z,1015.36
2019-04-30T04:42:19.990Z,1015.38
2019-04-30T04:43:20.284Z,1015.34
2019-04-30T04:44:20.491Z,1015.37
2019-04-30T04:45:20.069Z,1015.39
2019-04-30T04:46:20.542Z,1015.37
2019-04-30T04:47:20.450Z,1015.44
2019-04-30T04:48:23.256Z,1015.39
2019-04-30T04:49:20.749Z,1015.39
2019-04-30T04:50:20.237Z,1015.36
2019-04-30T04:51:31.466Z,1015.37
2019-04-30T04:52:22.002Z,1015.35
2019-04-30T04:53:19.813Z,1015.39
2019-04-30T04:54:20.342Z,1015.34
2019-04-30T04:55:22.132Z,1015.42
2019-04-30T04:56:19.744Z,1015.44
2019-04-30T04:57:22.729Z,1015.41
2019-04-30T04:58:21.479Z,1015.43
2019-04-30T04:59:20.177Z,1015.45
2019-04-30T05:00:19.713Z,1015.44
2019-04-30T05:01:20.387Z,1015.43
2019-04-30T05:02:19.680Z,1015.44
2019-04-30T05:03:20.202Z,1015.44
2019-04-30T05:04:20.119Z,1015.49
2019-04-30T05:05:19.669Z,1015.53
2019-04-30T05:06:21.743Z,1015.50
2019-04-30T05:07:19.701Z,1015.45
2019-04-30T05:08:19.614Z,1015.52
2019-04-30T05:09:19.633Z,1015.51
2019-04-30T05:10:19.592Z,1015.51
2019-04-30T05:11:19.594Z,1015.46
2019-04-30T05:13:20.560Z,1015.50
2019-04-30T05:14:40.600Z,1015.47
2019-04-30T05:15:19.612Z,1015.52
2019-04-30T05:16:19.526Z,1015.48
2019-04-30T05:17:40.515Z,1015.53
2019-04-30T05:18:19.509Z,1015.51
2019-04-30T05:19:19.514Z,1015.53
2019-04-30T05:20:19.624Z,1015.50
2019-04-30T05:21:19.481Z,1015.55
2019-04-30T05:22:19.465Z,1015.55
2019-04-30T05:23:21.925Z,1015.50
2019-04-30T05:24:19.469Z,1015.49
2019-04-30T05:25:19.439Z,1015.53
2019-04-30T05:26:19.416Z,1015.54
2019-04-30T05:27:19.808Z,1015.55
2019-04-30T05:28:19.394Z,1015.62
2019-04-30T05:29:19.409Z,1015.60
2019-04-30T05:30:19.940Z,1015.56
2019-04-30T05:31:21.144Z,1015.59
2019-04-30T05:33:20.515Z,1015.57
2019-04-30T05:34:19.331Z,1015.62
2019-04-30T05:35:19.353Z,1015.67
2019-04-30T05:36:19.343Z,1015.66
2019-04-30T05:37:19.318Z,1015.65
2019-04-30T05:38:19.287Z,1015.65
2019-04-30T05:39:19.278Z,1015.67
2019-04-30T05:40:19.297Z,1015.71
2019-04-30T05:41:19.398Z,1015.65
2019-04-30T05:42:19.251Z,1015.65
2019-04-30T05:43:19.387Z,1015.58
2019-04-30T05:44:19.226Z,1015.63
2019-04-30T05:45:19.414Z,1015.63
2019-04-30T05:46:19.590Z,1015.61
2019-04-30T05:47:19.722Z,1015.58
2019-04-30T05:48:19.199Z,1015.57
2019-04-30T05:49:20.474Z,1015.66
2019-04-30T05:50:19.996Z,1015.57
2019-04-30T05:51:21.133Z,1015.59
2019-04-30T05:52:19.976Z,1015.63
2019-04-30T05:53:19.171Z,1015.63
2019-04-30T05:54:19.128Z,1015.60
2019-04-30T05:55:19.760Z,1015.64
2019-04-30T05:56:19.411Z,1015.71
2019-04-30T05:57:19.763Z,1015.68
2019-04-30T05:58:19.827Z,1015.62
2019-04-30T05:59:20.657Z,1015.65
2019-04-30T06:00:19.272Z,1015.59
2019-04-30T06:01:19.743Z,1015.63
2019-04-30T06:02:19.515Z,1015.59
2019-04-30T06:03:27.665Z,1015.60
2019-04-30T06:04:20.018Z,1015.68
2019-04-30T06:05:19.027Z,1015.64
2019-04-30T06:06:19.452Z,1015.67
2019-04-30T06:07:19.135Z,1015.67
2019-04-30T06:08:19.264Z,1015.69
2019-04-30T06:09:30.472Z,1015.65
2019-04-30T06:10:19.953Z,1015.65
2019-04-30T06:11:19.317Z,1015.69
2019-04-30T06:12:20.299Z,1015.68
2019-04-30T06:13:19.076Z,1015.68
2019-04-30T06:14:18.900Z,1015.69
2019-04-30T06:15:19.378Z,1015.69
2019-04-30T06:16:18.925Z,1015.65
2019-04-30T06:17:19.692Z,1015.63
2019-04-30T06:18:20.422Z,1015.67
2019-04-30T06:19:19.588Z,1015.66
2019-04-30T06:20:20.998Z,1015.67
2019-04-30T06:21:21.337Z,1015.66
2019-04-30T06:22:19.129Z,1015.70
2019-04-30T06:23:19.486Z,1015.62
2019-04-30T06:24:18.876Z,1015.67
2019-04-30T06:25:30.648Z,1015.73
2019-04-30T06:26:20.691Z,1015.66
2019-04-30T06:27:19.249Z,1015.74
2019-04-30T06:28:19.586Z,1015.74
2019-04-30T06:29:19.027Z,1015.77
2019-04-30T06:30:19.810Z,1015.78
2019-04-30T06:31:31.677Z,1015.77
2019-04-30T06:32:19.726Z,1015.77
2019-04-30T06:33:19.317Z,1015.72
2019-04-30T06:34:19.765Z,1015.70
2019-04-30T06:35:19.369Z,1015.73
2019-04-30T06:36:19.117Z,1015.74
2019-04-30T06:37:19.489Z,1015.73
2019-04-30T06:38:18.654Z,1015.71
2019-04-30T06:39:18.861Z,1015.76
2019-04-30T06:40:19.622Z,1015.71
2019-04-30T06:41:19.826Z,1015.80
2019-04-30T06:42:19.476Z,1015.71
2019-04-30T06:43:19.054Z,1015.73
2019-04-30T06:44:19.487Z,1015.77
2019-04-30T06:45:19.140Z,1015.78
2019-04-30T06:46:18.813Z,1015.81
2019-04-30T06:47:20.066Z,1015.78
2019-04-30T06:48:19.960Z,1015.80
2019-04-30T06:49:19.469Z,1015.76
2019-04-30T06:50:19.427Z,1015.73
2019-04-30T06:51:19.009Z,1015.76
2019-04-30T06:52:22.991Z,1015.72
2019-04-30T06:53:19.476Z,1015.72
2019-04-30T06:54:19.165Z,1015.72
2019-04-30T06:55:19.268Z,1015.68
2019-04-30T06:56:18.945Z,1015.75
2019-04-30T06:57:19.904Z,1015.71
2019-04-30T06:58:20.555Z,1015.68
2019-04-30T06:59:20.274Z,1015.72
2019-04-30T07:00:20.672Z,1015.72
2019-04-30T07:01:19.432Z,1015.73
2019-04-30T07:02:19.692Z,1015.75
2019-04-30T07:03:19.128Z,1015.73
2019-04-30T07:04:19.472Z,1015.70
2019-04-30T07:05:18.692Z,1015.66
2019-04-30T07:06:29.165Z,1015.69
2019-04-30T07:07:23.046Z,1015.72
2019-04-30T07:08:19.320Z,1015.69
2019-04-30T07:09:19.699Z,1015.70
2019-04-30T07:10:20.315Z,1015.65
2019-04-30T07:11:19.502Z,1015.72
2019-04-30T07:12:27.328Z,1015.66
2019-04-30T07:13:19.269Z,1015.69
2019-04-30T07:14:19.560Z,1015.67
2019-04-30T07:15:19.676Z,1015.69
2019-04-30T07:16:19.017Z,1015.70
2019-04-30T07:17:19.529Z,1015.73
2019-04-30T07:18:18.997Z,1015.75
2019-04-30T07:19:30.067Z,1015.65
2019-04-30T07:20:19.318Z,1015.69
2019-04-30T07:21:19.832Z,1015.67
2019-04-30T07:22:20.707Z,1015.63
2019-04-30T07:23:19.148Z,1015.65
2019-04-30T07:24:20.796Z,1015.60
2019-04-30T07:25:19.551Z,1015.61
2019-04-30T07:26:22.722Z,1015.63
2019-04-30T07:27:23.910Z,1015.63
2019-04-30T07:28:19.151Z,1015.62
2019-04-30T07:29:19.618Z,1015.66
2019-04-30T07:30:19.260Z,1015.67
2019-04-30T07:31:19.227Z,1015.62
2019-04-30T07:32:19.769Z,1015.64
2019-04-30T07:33:20.726Z,1015.63
2019-04-30T07:34:19.660Z,1015.59
2019-04-30T07:35:19.610Z,1015.65
2019-04-30T07:36:19.511Z,1015.64
2019-04-30T07:37:24.215Z,1015.67
2019-04-30T07:38:19.464Z,1015.62
2019-04-30T07:39:19.228Z,1015.62
2019-04-30T07:40:19.016Z,1015.61
2019-04-30T07:41:19.044Z,1015.61
2019-04-30T07:42:19.276Z,1015.59
2019-04-30T07:43:18.980Z,1015.60
2019-04-30T07:44:32.646Z,1015.57
2019-04-30T07:45:19.601Z,1015.60
2019-04-30T07:46:19.797Z,1015.57
2019-04-30T07:47:19.436Z,1015.64
2019-04-30T07:48:21.130Z,1015.58
2019-04-30T07:49:20.573Z,1015.61
2019-04-30T07:50:20.802Z,1015.58
2019-04-30T07:51:20.953Z,1015.59
2019-04-30T07:52:20.995Z,1015.59
2019-04-30T07:53:18.796Z,1015.62
2019-04-30T07:54:18.952Z,1015.60
2019-04-30T07:55:19.628Z,1015.64
2019-04-30T07:56:25.614Z,1015.65
2019-04-30T07:57:19.361Z,1015.65
2019-04-30T07:58:20.477Z,1015.65
2019-04-30T07:59:19.941Z,1015.69
2019-04-30T08:00:19.410Z,1015.67
2019-04-30T08:01:19.567Z,1015.70
2019-04-30T08:02:20.576Z,1015.72
2019-04-30T08:03:20.616Z,1015.69
2019-04-30T08:04:18.838Z,1015.70
2019-04-30T08:05:19.874Z,1015.66
2019-04-30T08:06:19.040Z,1015.71
2019-04-30T08:07:19.684Z,1015.63
2019-04-30T08:08:25.123Z,1015.62
2019-04-30T08:09:19.679Z,1015.60
2019-04-30T08:10:18.816Z,1015.64
2019-04-30T08:11:25.744Z,1015.60
2019-04-30T08:12:25.798Z,1015.60
2019-04-30T08:13:21.224Z,1015.63
2019-04-30T08:14:18.781Z,1015.63
2019-04-30T08:15:19.621Z,1015.58
2019-04-30T08:16:18.702Z,1015.59
2019-04-30T08:17:18.833Z,1015.62
2019-04-30T08:18:18.470Z,1015.59
2019-04-30T08:19:19.121Z,1015.62
2019-04-30T08:20:19.494Z,1015.60
2019-04-30T08:21:18.987Z,1015.71
2019-04-30T08:22:19.472Z,1015.70
2019-04-30T08:23:33.483Z,1015.70
2019-04-30T08:24:19.339Z,1015.72
2019-04-30T08:25:19.830Z,1015.66
2019-04-30T08:26:18.799Z,1015.67
2019-04-30T08:27:19.131Z,1015.79
2019-04-30T08:28:18.714Z,1015.74
2019-04-30T08:29:19.413Z,1015.74
2019-04-30T08:30:23.945Z,1015.74
2019-04-30T08:31:19.586Z,1015.79
2019-04-30T08:32:19.063Z,1015.83
2019-04-30T08:33:19.229Z,1015.83
2019-04-30T08:34:17.382Z,1015.78
2019-04-30T08:35:19.536Z,1015.85
2019-04-30T08:36:19.531Z,1015.84
2019-04-30T08:37:19.612Z,1015.79
2019-04-30T08:38:19.088Z,1015.73
2019-04-30T08:39:17.320Z,1015.75
2019-04-30T08:40:19.019Z,1015.73
2019-04-30T08:41:19.161Z,1015.76
2019-04-30T08:42:28.988Z,1015.65
2019-04-30T08:43:19.859Z,1015.59
2019-04-30T08:44:20.871Z,1015.66
2019-04-30T08:45:17.257Z,1015.59
2019-04-30T08:46:19.051Z,1015.59
2019-04-30T08:47:18.783Z,1015.63
2019-04-30T08:48:18.966Z,1015.60
2019-04-30T08:49:19.363Z,1015.60
2019-04-30T08:50:19.584Z,1015.60
2019-04-30T08:51:19.078Z,1015.53
2019-04-30T08:52:19.232Z,1015.56
2019-04-30T08:53:27.545Z,1015.51
2019-04-30T08:54:19.712Z,1015.57
2019-04-30T08:55:19.651Z,1015.62
2019-04-30T08:56:21.680Z,1015.63
2019-04-30T08:57:19.094Z,1015.65
2019-04-30T08:58:20.331Z,1015.63
2019-04-30T08:59:19.176Z,1015.64
2019-04-30T09:00:17.112Z,1015.63
2019-04-30T09:01:19.217Z,1015.64
2019-04-30T09:02:19.551Z,1015.63
2019-04-30T09:03:17.075Z,1015.64
2019-04-30T09:04:17.051Z,1015.64
2019-04-30T09:05:18.548Z,1015.59
2019-04-30T09:06:17.037Z,1015.62
2019-04-30T09:07:17.023Z,1015.62
2019-04-30T09:08:17.055Z,1015.65
2019-04-30T09:09:18.797Z,1015.65
2019-04-30T09:10:19.103Z,1015.59
2019-04-30T09:11:25.298Z,1015.56
2019-04-30T09:12:19.613Z,1015.63
2019-04-30T09:13:19.059Z,1015.65
2019-04-30T09:14:18.699Z,1015.63
2019-04-30T09:15:18.727Z,1015.57
2019-04-30T09:16:16.921Z,1015.60
2019-04-30T09:17:16.921Z,1015.58
2019-04-30T09:18:18.931Z,1015.57
2019-04-30T09:19:16.898Z,1015.54
2019-04-30T09:20:16.894Z,1015.54
2019-04-30T09:21:18.651Z,1015.57
2019-04-30T09:22:16.876Z,1015.55
2019-04-30T09:23:18.641Z,1015.63
2019-04-30T09:24:16.846Z,1015.56
2019-04-30T09:25:16.827Z,1015.54
2019-04-30T09:26:18.668Z,1015.54
2019-04-30T09:27:16.802Z,1015.55
2019-04-30T09:28:16.806Z,1015.57
2019-04-30T09:29:16.777Z,1015.53
2019-04-30T09:30:18.696Z,1015.53
2019-04-30T09:31:16.764Z,1015.55
2019-04-30T09:32:16.747Z,1015.52
2019-04-30T09:33:16.758Z,1015.51
2019-04-30T09:34:18.582Z,1015.53
2019-04-30T09:35:16.713Z,1015.54
2019-04-30T09:36:16.865Z,1015.53
2019-04-30T09:37:18.524Z,1015.56
2019-04-30T09:38:16.698Z,1015.48
2019-04-30T09:39:16.677Z,1015.47
2019-04-30T09:40:20.504Z,1015.43
2019-04-30T09:41:16.658Z,1015.43
2019-04-30T09:42:16.639Z,1015.48
2019-04-30T09:43:18.299Z,1015.52
2019-04-30T09:44:16.608Z,1015.53
2019-04-30T09:45:18.581Z,1015.55
2019-04-30T09:46:25.950Z,1015.55
2019-04-30T09:47:17.578Z,1015.42
2019-04-30T09:48:18.827Z,1015.43
2019-04-30T09:49:16.571Z,1015.48
2019-04-30T09:50:16.555Z,1015.49
2019-04-30T09:51:16.952Z,1015.51
2019-04-30T09:52:18.834Z,1015.49
2019-04-30T09:53:16.749Z,1015.44
2019-04-30T09:54:16.922Z,1015.48
2019-04-30T09:55:16.490Z,1015.44
2019-04-30T09:56:16.498Z,1015.48
2019-04-30T09:57:16.480Z,1015.46
2019-04-30T09:58:18.251Z,1015.42
2019-04-30T09:59:16.464Z,1015.38
2019-04-30T10:00:16.441Z,1015.41
2019-04-30T10:01:16.429Z,1015.43
2019-04-30T10:02:16.428Z,1015.36
2019-04-30T10:03:19.058Z,1015.40
2019-04-30T10:04:16.982Z,1015.39
2019-04-30T10:05:18.058Z,1015.39
2019-04-30T10:06:16.380Z,1015.33
2019-04-30T10:07:16.419Z,1015.32
2019-04-30T10:08:16.355Z,1015.27
2019-04-30T10:09:16.347Z,1015.29
2019-04-30T10:10:16.356Z,1015.30
2019-04-30T10:11:16.315Z,1015.28
2019-04-30T10:12:16.346Z,1015.27
2019-04-30T10:13:16.343Z,1015.29
2019-04-30T10:14:16.309Z,1015.21
2019-04-30T10:15:16.279Z,1015.23
2019-04-30T10:16:16.265Z,1015.19
2019-04-30T10:17:16.248Z,1015.21
2019-04-30T10:18:16.272Z,1015.22
2019-04-30T10:19:16.233Z,1015.19
2019-04-30T10:20:16.223Z,1015.16
2019-04-30T10:21:16.211Z,1015.24
2019-04-30T10:22:16.208Z,1015.21
2019-04-30T10:23:16.217Z,1015.15
2019-04-30T10:24:16.186Z,1015.11
2019-04-30T10:25:16.173Z,1015.14
2019-04-30T10:26:16.156Z,1015.07
2019-04-30T10:27:16.147Z,1015.16
2019-04-30T10:28:16.154Z,1015.11
2019-04-30T10:29:16.131Z,1015.06
2019-04-30T10:30:16.114Z,1015.10
2019-04-30T10:31:16.113Z,1015.09
2019-04-30T10:32:16.087Z,1015.04
2019-04-30T10:33:16.096Z,1015.07
2019-04-30T10:34:16.064Z,1014.99
2019-04-30T10:35:16.061Z,1015.08
2019-04-30T10:36:16.055Z,1015.11
2019-04-30T10:37:16.042Z,1015.07
2019-04-30T10:38:16.060Z,1015.06
2019-04-30T10:39:16.018Z,1015.07
2019-04-30T10:40:15.997Z,1015.07
2019-04-30T10:41:15.989Z,1015.04
2019-04-30T10:42:15.981Z,1015.04
2019-04-30T10:43:16.000Z,1014.97
2019-04-30T10:44:16.194Z,1015.01
2019-04-30T10:45:15.957Z,1015.01
2019-04-30T10:46:15.941Z,1015.00
2019-04-30T10:47:15.926Z,1014.97
2019-04-30T10:48:15.928Z,1015.00
2019-04-30T10:49:15.967Z,1014.93
2019-04-30T10:50:15.892Z,1014.93
2019-04-30T10:51:15.880Z,1014.92
2019-04-30T10:52:15.868Z,1014.92
2019-04-30T10:53:15.862Z,1014.84
2019-04-30T10:54:24.143Z,1014.95
2019-04-30T10:55:16.841Z,1014.95
2019-04-30T10:56:15.830Z,1014.96
2019-04-30T10:57:15.823Z,1014.93
2019-04-30T10:58:15.803Z,1014.93
2019-04-30T10:59:15.814Z,1014.88
2019-04-30T11:00:15.782Z,1014.83
2019-04-30T11:01:15.772Z,1014.84
2019-04-30T11:02:15.764Z,1014.84
2019-04-30T11:03:19.848Z,1014.92
2019-04-30T11:04:16.750Z,1014.90
2019-04-30T11:05:15.735Z,1014.87
2019-04-30T11:06:15.718Z,1014.86
2019-04-30T11:07:15.708Z,1014.89
2019-04-30T11:08:15.708Z,1015.04
2019-04-30T11:09:15.716Z,1015.21
2019-04-30T11:10:15.707Z,1015.24
2019-04-30T11:11:15.666Z,1015.23
2019-04-30T11:12:15.646Z,1015.18
2019-04-30T11:13:15.649Z,1015.24
2019-04-30T11:14:15.659Z,1015.14
2019-04-30T11:15:15.614Z,1015.21
2019-04-30T11:16:15.759Z,1015.17
2019-04-30T11:17:15.736Z,1015.21
2019-04-30T11:18:15.850Z,1015.20
2019-04-30T11:19:15.832Z,1015.28
2019-04-30T11:20:15.797Z,1015.20
2019-04-30T11:21:15.734Z,1015.23
2019-04-30T11:22:15.692Z,1015.22
2019-04-30T11:23:15.748Z,1015.32
2019-04-30T11:24:15.749Z,1015.26
2019-04-30T11:25:15.710Z,1015.28
2019-04-30T11:26:15.978Z,1015.27
2019-04-30T11:27:16.127Z,1015.36
2019-04-30T11:28:15.890Z,1015.34
2019-04-30T11:29:15.729Z,1015.34
2019-04-30T11:30:21.369Z,1015.31
2019-04-30T11:31:16.792Z,1015.34
2019-04-30T11:32:15.613Z,1015.31
2019-04-30T11:33:15.713Z,1015.36
2019-04-30T11:34:15.424Z,1015.30
2019-04-30T11:35:15.433Z,1015.30
2019-04-30T11:36:15.414Z,1015.25
2019-04-30T11:37:15.419Z,1015.22
2019-04-30T11:38:15.384Z,1015.27
2019-04-30T11:39:15.369Z,1015.26
2019-04-30T11:40:15.381Z,1015.26
2019-04-30T11:41:15.351Z,1015.24
2019-04-30T11:42:15.351Z,1015.25
2019-04-30T11:43:15.344Z,1015.28
2019-04-30T11:44:27.773Z,1015.22
2019-04-30T11:45:16.353Z,1015.23
2019-04-30T11:46:15.321Z,1015.20
2019-04-30T11:47:15.291Z,1015.20
2019-04-30T11:48:15.299Z,1015.13
2019-04-30T11:49:15.287Z,1015.14
2019-04-30T11:50:15.281Z,1015.12
2019-04-30T11:51:15.257Z,1015.17
2019-04-30T11:52:15.242Z,1015.19
2019-04-30T11:53:25.420Z,1015.12
2019-04-30T11:54:16.222Z,1015.16
2019-04-30T11:55:15.248Z,1015.12
2019-04-30T11:56:15.217Z,1015.14
2019-04-30T11:57:15.190Z,1015.13
2019-04-30T11:58:21.617Z,1015.15
2019-04-30T11:59:16.189Z,1015.18
2019-04-30T12:00:15.208Z,1015.08
2019-04-30T12:01:15.164Z,1015.13
2019-04-30T12:02:15.146Z,1015.04
2019-04-30T12:03:15.140Z,1015.07
2019-04-30T12:04:15.130Z,1015.09
2019-04-30T12:05:15.137Z,1015.04
2019-04-30T12:06:15.125Z,1015.04
2019-04-30T12:07:15.145Z,1015.06